sensor_id;sensor_type;location;lat;lon;timestamp;P1;durP1;ratioP1;P2;durP2;ratioP2
84021;SDS011;74108;48.636;9.492;2024-01-06T00:04:14;9.65;;;5.15;;
84021;SDS011;74108;48.636;9.492;2024-01-06T00:06:52;11.13;;;5.20;;
84021;SDS011;74108;48.636;9.492;2024-01-06T00:10:09;8.75;;;5.00;;
84021;SDS011;74108;48.636;9.492;2024-01-06T00:16:18;9.60;;;4.78;;
84021;SDS011;74108;48.636;9.492;2024-01-06T00:18:53;8.57;;;4.72;;
84021;SDS011;74108;48.636;9.492;2024-01-06T00:21:21;6.38;;;4.15;;
84021;SDS011;74108;48.636;9.492;2024-01-06T00:27:19;9.20;;;5.25;;
84021;SDS011;74108;48.636;9.492;2024-01-06T00:29:47;9.00;;;4.30;;
84021;SDS011;74108;48.636;9.492;2024-01-06T00:35:35;8.25;;;4.35;;
84021;SDS011;74108;48.636;9.492;2024-01-06T00:38:11;9.57;;;3.90;;
84021;SDS011;74108;48.636;9.492;2024-01-06T00:40:52;7.28;;;3.35;;
84021;SDS011;74108;48.636;9.492;2024-01-06T00:43:23;6.97;;;3.78;;
84021;SDS011;74108;48.636;9.492;2024-01-06T00:46:35;8.18;;;3.55;;
84021;SDS011;74108;48.636;9.492;2024-01-06T00:49:00;6.82;;;3.67;;
84021;SDS011;74108;48.636;9.492;2024-01-06T00:53:59;6.60;;;3.30;;
84021;SDS011;74108;48.636;9.492;2024-01-06T00:59:05;6.65;;;3.10;;
84021;SDS011;74108;48.636;9.492;2024-01-06T01:01:38;6.10;;;2.92;;
84021;SDS011;74108;48.636;9.492;2024-01-06T01:04:09;5.43;;;3.00;;
84021;SDS011;74108;48.636;9.492;2024-01-06T01:06:42;6.10;;;3.25;;
84021;SDS011;74108;48.636;9.492;2024-01-06T01:09:46;6.95;;;2.97;;
84021;SDS011;74108;48.636;9.492;2024-01-06T01:12:59;4.90;;;2.97;;
84021;SDS011;74108;48.636;9.492;2024-01-06T01:15:33;5.38;;;2.63;;
84021;SDS011;74108;48.636;9.492;2024-01-06T01:18:25;5.75;;;2.67;;
84021;SDS011;74108;48.636;9.492;2024-01-06T01:20:53;4.85;;;2.67;;
84021;SDS011;74108;48.636;9.492;2024-01-06T01:23:21;5.28;;;2.55;;
84021;SDS011;74108;48.636;9.492;2024-01-06T01:26:10;5.18;;;2.85;;
84021;SDS011;74108;48.636;9.492;2024-01-06T01:28:56;8.00;;;2.65;;
84021;SDS011;74108;48.636;9.492;2024-01-06T01:31:36;5.10;;;2.80;;
84021;SDS011;74108;48.636;9.492;2024-01-06T01:34:19;5.25;;;2.60;;
84021;SDS011;74108;48.636;9.492;2024-01-06T01:37:02;4.50;;;2.60;;
84021;SDS011;74108;48.636;9.492;2024-01-06T01:39:38;5.15;;;2.60;;
84021;SDS011;74108;48.636;9.492;2024-01-06T01:42:20;4.45;;;2.33;;
84021;SDS011;74108;48.636;9.492;2024-01-06T01:44:51;4.13;;;2.20;;
84021;SDS011;74108;48.636;9.492;2024-01-06T01:47:33;3.45;;;2.20;;
84021;SDS011;74108;48.636;9.492;2024-01-06T01:50:06;4.88;;;2.33;;
84021;SDS011;74108;48.636;9.492;2024-01-06T01:52:35;5.80;;;2.80;;
84021;SDS011;74108;48.636;9.492;2024-01-06T01:55:28;4.07;;;2.35;;
84021;SDS011;74108;48.636;9.492;2024-01-06T01:58:19;5.30;;;2.80;;
84021;SDS011;74108;48.636;9.492;2024-01-06T02:01:07;5.50;;;2.45;;
84021;SDS011;74108;48.636;9.492;2024-01-06T02:04:19;4.63;;;2.55;;
84021;SDS011;74108;48.636;9.492;2024-01-06T02:06:55;5.18;;;2.33;;
84021;SDS011;74108;48.636;9.492;2024-01-06T02:09:23;4.13;;;2.30;;
84021;SDS011;74108;48.636;9.492;2024-01-06T02:11:58;4.57;;;2.15;;
84021;SDS011;74108;48.636;9.492;2024-01-06T02:14:58;4.15;;;2.00;;
84021;SDS011;74108;48.636;9.492;2024-01-06T02:18:01;4.22;;;1.88;;
84021;SDS011;74108;48.636;9.492;2024-01-06T02:20:46;5.45;;;2.17;;
84021;SDS011;74108;48.636;9.492;2024-01-06T02:23:24;4.10;;;1.88;;
84021;SDS011;74108;48.636;9.492;2024-01-06T02:26:02;3.17;;;2.00;;
84021;SDS011;74108;48.636;9.492;2024-01-06T02:28:53;5.07;;;1.90;;
84021;SDS011;74108;48.636;9.492;2024-01-06T02:31:54;3.95;;;1.75;;
84021;SDS011;74108;48.636;9.492;2024-01-06T02:34:23;3.17;;;1.80;;
84021;SDS011;74108;48.636;9.492;2024-01-06T02:37:32;3.63;;;1.75;;
84021;SDS011;74108;48.636;9.492;2024-01-06T02:43:17;3.97;;;1.90;;
84021;SDS011;74108;48.636;9.492;2024-01-06T02:45:53;3.17;;;1.77;;
84021;SDS011;74108;48.636;9.492;2024-01-06T02:48:21;4.03;;;1.80;;
84021;SDS011;74108;48.636;9.492;2024-01-06T02:50:55;3.67;;;2.05;;
84021;SDS011;74108;48.636;9.492;2024-01-06T02:53:36;3.63;;;1.65;;
84021;SDS011;74108;48.636;9.492;2024-01-06T02:56:15;3.50;;;1.88;;
84021;SDS011;74108;48.636;9.492;2024-01-06T02:58:51;7.13;;;2.03;;
84021;SDS011;74108;48.636;9.492;2024-01-06T03:01:31;5.03;;;1.80;;
84021;SDS011;74108;48.636;9.492;2024-01-06T03:04:04;4.70;;;1.90;;
84021;SDS011;74108;48.636;9.492;2024-01-06T03:06:45;3.55;;;2.03;;
84021;SDS011;74108;48.636;9.492;2024-01-06T03:09:32;4.63;;;1.90;;
84021;SDS011;74108;48.636;9.492;2024-01-06T03:12:08;5.35;;;1.95;;
84021;SDS011;74108;48.636;9.492;2024-01-06T03:14:51;3.17;;;1.83;;
84021;SDS011;74108;48.636;9.492;2024-01-06T03:17:30;4.60;;;1.98;;
84021;SDS011;74108;48.636;9.492;2024-01-06T03:20:47;4.30;;;2.10;;
84021;SDS011;74108;48.636;9.492;2024-01-06T03:23:40;3.70;;;1.90;;
84021;SDS011;74108;48.636;9.492;2024-01-06T03:26:51;3.38;;;1.98;;
84021;SDS011;74108;48.636;9.492;2024-01-06T03:29:42;3.55;;;2.05;;
84021;SDS011;74108;48.636;9.492;2024-01-06T03:32:11;3.92;;;1.85;;
84021;SDS011;74108;48.636;9.492;2024-01-06T03:34:52;4.25;;;1.90;;
84021;SDS011;74108;48.636;9.492;2024-01-06T03:37:38;3.25;;;1.85;;
84021;SDS011;74108;48.636;9.492;2024-01-06T03:40:25;4.75;;;1.90;;
84021;SDS011;74108;48.636;9.492;2024-01-06T03:46:30;4.40;;;1.80;;
84021;SDS011;74108;48.636;9.492;2024-01-06T03:49:14;3.70;;;2.03;;
84021;SDS011;74108;48.636;9.492;2024-01-06T03:51:46;4.90;;;2.20;;
84021;SDS011;74108;48.636;9.492;2024-01-06T03:54:19;5.53;;;2.20;;
84021;SDS011;74108;48.636;9.492;2024-01-06T03:57:36;3.67;;;2.05;;
84021;SDS011;74108;48.636;9.492;2024-01-06T04:00:04;3.95;;;2.05;;
84021;SDS011;74108;48.636;9.492;2024-01-06T04:03:01;4.10;;;2.00;;
84021;SDS011;74108;48.636;9.492;2024-01-06T04:05:32;3.53;;;2.15;;
84021;SDS011;74108;48.636;9.492;2024-01-06T04:08:15;3.38;;;2.13;;
84021;SDS011;74108;48.636;9.492;2024-01-06T04:10:59;3.15;;;2.00;;
84021;SDS011;74108;48.636;9.492;2024-01-06T04:14:18;4.15;;;2.05;;
84021;SDS011;74108;48.636;9.492;2024-01-06T04:17:17;6.53;;;2.00;;
84021;SDS011;74108;48.636;9.492;2024-01-06T04:20:46;5.38;;;2.17;;
84021;SDS011;74108;48.636;9.492;2024-01-06T04:24:05;3.78;;;2.05;;
84021;SDS011;74108;48.636;9.492;2024-01-06T04:27:12;4.13;;;2.03;;
84021;SDS011;74108;48.636;9.492;2024-01-06T04:29:46;4.25;;;2.05;;
84021;SDS011;74108;48.636;9.492;2024-01-06T04:32:15;5.80;;;2.33;;
84021;SDS011;74108;48.636;9.492;2024-01-06T04:35:07;3.70;;;1.80;;
84021;SDS011;74108;48.636;9.492;2024-01-06T04:37:49;3.97;;;2.10;;
84021;SDS011;74108;48.636;9.492;2024-01-06T04:40:17;4.30;;;2.10;;
84021;SDS011;74108;48.636;9.492;2024-01-06T04:42:58;3.90;;;1.95;;
84021;SDS011;74108;48.636;9.492;2024-01-06T04:45:48;5.10;;;1.95;;
84021;SDS011;74108;48.636;9.492;2024-01-06T04:48:35;3.92;;;1.83;;
84021;SDS011;74108;48.636;9.492;2024-01-06T04:51:34;5.00;;;1.90;;
84021;SDS011;74108;48.636;9.492;2024-01-06T04:54:16;4.20;;;1.88;;
84021;SDS011;74108;48.636;9.492;2024-01-06T05:00:09;3.00;;;1.98;;
84021;SDS011;74108;48.636;9.492;2024-01-06T05:03:29;3.95;;;1.83;;
84021;SDS011;74108;48.636;9.492;2024-01-06T05:06:23;2.97;;;1.90;;
84021;SDS011;74108;48.636;9.492;2024-01-06T05:08:54;4.70;;;2.33;;
84021;SDS011;74108;48.636;9.492;2024-01-06T05:11:27;6.40;;;2.30;;
84021;SDS011;74108;48.636;9.492;2024-01-06T05:17:10;5.95;;;2.45;;
84021;SDS011;74108;48.636;9.492;2024-01-06T05:19:41;4.63;;;2.13;;
84021;SDS011;74108;48.636;9.492;2024-01-06T05:22:14;4.97;;;2.20;;
84021;SDS011;74108;48.636;9.492;2024-01-06T05:24:57;5.13;;;2.30;;
84021;SDS011;74108;48.636;9.492;2024-01-06T05:30:29;5.20;;;2.17;;
84021;SDS011;74108;48.636;9.492;2024-01-06T05:33:02;4.45;;;2.20;;
84021;SDS011;74108;48.636;9.492;2024-01-06T05:35:36;3.22;;;1.83;;
84021;SDS011;74108;48.636;9.492;2024-01-06T05:38:09;4.03;;;2.13;;
84021;SDS011;74108;48.636;9.492;2024-01-06T05:41:08;4.88;;;2.70;;
84021;SDS011;74108;48.636;9.492;2024-01-06T05:44:28;4.20;;;2.25;;
84021;SDS011;74108;48.636;9.492;2024-01-06T05:50:08;6.22;;;2.20;;
84021;SDS011;74108;48.636;9.492;2024-01-06T05:53:05;5.43;;;2.42;;
84021;SDS011;74108;48.636;9.492;2024-01-06T05:55:45;4.90;;;2.00;;
84021;SDS011;74108;48.636;9.492;2024-01-06T05:58:16;3.10;;;1.95;;
84021;SDS011;74108;48.636;9.492;2024-01-06T06:01:22;3.80;;;2.13;;
84021;SDS011;74108;48.636;9.492;2024-01-06T06:04:14;4.22;;;2.05;;
84021;SDS011;74108;48.636;9.492;2024-01-06T06:06:50;4.10;;;2.20;;
84021;SDS011;74108;48.636;9.492;2024-01-06T06:09:40;3.40;;;2.08;;
84021;SDS011;74108;48.636;9.492;2024-01-06T06:13:16;3.58;;;2.15;;
84021;SDS011;74108;48.636;9.492;2024-01-06T06:16:21;3.75;;;2.30;;
84021;SDS011;74108;48.636;9.492;2024-01-06T06:19:07;5.60;;;2.40;;
84021;SDS011;74108;48.636;9.492;2024-01-06T06:22:20;4.13;;;2.03;;
84021;SDS011;74108;48.636;9.492;2024-01-06T06:25:09;5.50;;;2.40;;
84021;SDS011;74108;48.636;9.492;2024-01-06T06:27:40;3.80;;;2.10;;
84021;SDS011;74108;48.636;9.492;2024-01-06T06:30:39;3.47;;;2.08;;
84021;SDS011;74108;48.636;9.492;2024-01-06T06:33:35;4.82;;;2.30;;
84021;SDS011;74108;48.636;9.492;2024-01-06T06:39:33;5.03;;;2.38;;
84021;SDS011;74108;48.636;9.492;2024-01-06T06:42:27;4.25;;;2.42;;
84021;SDS011;74108;48.636;9.492;2024-01-06T06:45:28;4.32;;;2.30;;
84021;SDS011;74108;48.636;9.492;2024-01-06T06:48:15;4.18;;;2.28;;
84021;SDS011;74108;48.636;9.492;2024-01-06T06:51:08;4.90;;;2.30;;
84021;SDS011;74108;48.636;9.492;2024-01-06T06:54:06;4.35;;;2.03;;
84021;SDS011;74108;48.636;9.492;2024-01-06T06:56:47;3.53;;;2.20;;
84021;SDS011;74108;48.636;9.492;2024-01-06T06:59:22;3.60;;;2.30;;
84021;SDS011;74108;48.636;9.492;2024-01-06T07:01:51;3.75;;;2.17;;
84021;SDS011;74108;48.636;9.492;2024-01-06T07:04:19;6.95;;;2.72;;
84021;SDS011;74108;48.636;9.492;2024-01-06T07:07:04;3.78;;;2.20;;
84021;SDS011;74108;48.636;9.492;2024-01-06T07:09:29;3.45;;;2.10;;
84021;SDS011;74108;48.636;9.492;2024-01-06T07:12:01;5.07;;;2.60;;
84021;SDS011;74108;48.636;9.492;2024-01-06T07:14:34;3.78;;;2.42;;
84021;SDS011;74108;48.636;9.492;2024-01-06T07:17:00;4.50;;;2.40;;
84021;SDS011;74108;48.636;9.492;2024-01-06T07:19:25;5.78;;;2.38;;
84021;SDS011;74108;48.636;9.492;2024-01-06T07:21:51;4.53;;;2.55;;
84021;SDS011;74108;48.636;9.492;2024-01-06T07:24:16;4.57;;;2.50;;
84021;SDS011;74108;48.636;9.492;2024-01-06T07:26:57;5.60;;;2.58;;
84021;SDS011;74108;48.636;9.492;2024-01-06T07:29:25;6.55;;;2.70;;
84021;SDS011;74108;48.636;9.492;2024-01-06T07:31:54;3.67;;;2.20;;
84021;SDS011;74108;48.636;9.492;2024-01-06T07:36:47;5.10;;;2.22;;
84021;SDS011;74108;48.636;9.492;2024-01-06T07:39:14;4.18;;;2.30;;
84021;SDS011;74108;48.636;9.492;2024-01-06T07:41:39;3.97;;;2.42;;
84021;SDS011;74108;48.636;9.492;2024-01-06T07:44:08;4.97;;;2.85;;
84021;SDS011;74108;48.636;9.492;2024-01-06T07:46:33;5.30;;;2.50;;
84021;SDS011;74108;48.636;9.492;2024-01-06T07:49:00;4.47;;;2.42;;
84021;SDS011;74108;48.636;9.492;2024-01-06T07:51:25;4.93;;;2.70;;
84021;SDS011;74108;48.636;9.492;2024-01-06T07:53:51;4.65;;;2.42;;
84021;SDS011;74108;48.636;9.492;2024-01-06T07:56:16;4.55;;;2.50;;
84021;SDS011;74108;48.636;9.492;2024-01-06T07:58:41;5.93;;;2.92;;
84021;SDS011;74108;48.636;9.492;2024-01-06T08:01:07;4.60;;;2.80;;
84021;SDS011;74108;48.636;9.492;2024-01-06T08:03:33;3.90;;;2.45;;
84021;SDS011;74108;48.636;9.492;2024-01-06T08:05:58;4.22;;;2.60;;
84021;SDS011;74108;48.636;9.492;2024-01-06T08:08:32;5.63;;;3.47;;
84021;SDS011;74108;48.636;9.492;2024-01-06T08:11:00;6.43;;;3.60;;
84021;SDS011;74108;48.636;9.492;2024-01-06T08:13:26;6.35;;;3.70;;
84021;SDS011;74108;48.636;9.492;2024-01-06T08:15:51;6.72;;;3.95;;
84021;SDS011;74108;48.636;9.492;2024-01-06T08:18:17;5.18;;;2.90;;
84021;SDS011;74108;48.636;9.492;2024-01-06T08:20:43;4.75;;;2.90;;
84021;SDS011;74108;48.636;9.492;2024-01-06T08:23:08;5.88;;;3.83;;
84021;SDS011;74108;48.636;9.492;2024-01-06T08:25:34;6.60;;;3.30;;
84021;SDS011;74108;48.636;9.492;2024-01-06T08:27:59;6.47;;;3.13;;
84021;SDS011;74108;48.636;9.492;2024-01-06T08:30:25;6.68;;;3.70;;
84021;SDS011;74108;48.636;9.492;2024-01-06T08:32:54;6.40;;;3.53;;
84021;SDS011;74108;48.636;9.492;2024-01-06T08:35:23;6.93;;;3.50;;
84021;SDS011;74108;48.636;9.492;2024-01-06T08:37:48;7.78;;;3.33;;
84021;SDS011;74108;48.636;9.492;2024-01-06T08:40:14;5.95;;;3.50;;
84021;SDS011;74108;48.636;9.492;2024-01-06T08:42:39;6.38;;;3.30;;
84021;SDS011;74108;48.636;9.492;2024-01-06T08:45:04;7.30;;;3.53;;
84021;SDS011;74108;48.636;9.492;2024-01-06T08:47:30;6.20;;;3.42;;
84021;SDS011;74108;48.636;9.492;2024-01-06T08:49:56;8.48;;;4.07;;
84021;SDS011;74108;48.636;9.492;2024-01-06T08:52:21;7.10;;;3.63;;
84021;SDS011;74108;48.636;9.492;2024-01-06T08:54:47;6.70;;;3.85;;
84021;SDS011;74108;48.636;9.492;2024-01-06T08:57:12;8.15;;;4.10;;
84021;SDS011;74108;48.636;9.492;2024-01-06T08:59:38;8.48;;;3.85;;
84021;SDS011;74108;48.636;9.492;2024-01-06T09:02:05;5.75;;;3.10;;
84021;SDS011;74108;48.636;9.492;2024-01-06T09:04:30;6.43;;;3.80;;
84021;SDS011;74108;48.636;9.492;2024-01-06T09:06:55;11.20;;;3.78;;
84021;SDS011;74108;48.636;9.492;2024-01-06T09:09:21;6.47;;;4.00;;
84021;SDS011;74108;48.636;9.492;2024-01-06T09:11:48;8.93;;;4.65;;
84021;SDS011;74108;48.636;9.492;2024-01-06T09:14:13;9.73;;;4.40;;
84021;SDS011;74108;48.636;9.492;2024-01-06T09:16:39;8.45;;;4.57;;
84021;SDS011;74108;48.636;9.492;2024-01-06T09:19:04;5.53;;;2.63;;
84021;SDS011;74108;48.636;9.492;2024-01-06T09:21:29;6.63;;;2.67;;
84021;SDS011;74108;48.636;9.492;2024-01-06T09:23:55;5.78;;;2.50;;
84021;SDS011;74108;48.636;9.492;2024-01-06T09:26:20;5.45;;;1.80;;
84021;SDS011;74108;48.636;9.492;2024-01-06T09:28:45;3.30;;;2.00;;
84021;SDS011;74108;48.636;9.492;2024-01-06T09:31:11;4.78;;;2.95;;
84021;SDS011;74108;48.636;9.492;2024-01-06T09:33:36;4.43;;;2.30;;
84021;SDS011;74108;48.636;9.492;2024-01-06T09:36:02;5.03;;;2.10;;
84021;SDS011;74108;48.636;9.492;2024-01-06T09:38:27;5.22;;;2.35;;
84021;SDS011;74108;48.636;9.492;2024-01-06T09:40:52;4.05;;;2.33;;
84021;SDS011;74108;48.636;9.492;2024-01-06T09:43:19;5.43;;;2.45;;
84021;SDS011;74108;48.636;9.492;2024-01-06T09:45:48;4.10;;;2.38;;
84021;SDS011;74108;48.636;9.492;2024-01-06T09:48:23;5.93;;;2.20;;
84021;SDS011;74108;48.636;9.492;2024-01-06T09:50:55;3.28;;;1.95;;
84021;SDS011;74108;48.636;9.492;2024-01-06T09:53:27;4.25;;;2.05;;
84021;SDS011;74108;48.636;9.492;2024-01-06T09:55:58;4.25;;;2.10;;
84021;SDS011;74108;48.636;9.492;2024-01-06T09:58:24;5.80;;;2.30;;
84021;SDS011;74108;48.636;9.492;2024-01-06T10:00:55;3.67;;;2.20;;
84021;SDS011;74108;48.636;9.492;2024-01-06T10:03:21;3.92;;;2.05;;
84021;SDS011;74108;48.636;9.492;2024-01-06T10:05:46;2.80;;;1.83;;
84021;SDS011;74108;48.636;9.492;2024-01-06T10:08:13;4.72;;;2.55;;
84021;SDS011;74108;48.636;9.492;2024-01-06T10:10:38;4.10;;;2.17;;
84021;SDS011;74108;48.636;9.492;2024-01-06T10:13:04;4.10;;;1.90;;
84021;SDS011;74108;48.636;9.492;2024-01-06T10:15:31;5.28;;;2.03;;
84021;SDS011;74108;48.636;9.492;2024-01-06T10:17:56;5.00;;;2.33;;
84021;SDS011;74108;48.636;9.492;2024-01-06T10:20:22;3.55;;;2.00;;
84021;SDS011;74108;48.636;9.492;2024-01-06T10:22:47;4.03;;;2.20;;
84021;SDS011;74108;48.636;9.492;2024-01-06T10:25:13;4.05;;;2.05;;
84021;SDS011;74108;48.636;9.492;2024-01-06T10:27:38;4.20;;;2.15;;
84021;SDS011;74108;48.636;9.492;2024-01-06T10:30:08;4.28;;;2.28;;
84021;SDS011;74108;48.636;9.492;2024-01-06T10:32:36;3.25;;;1.80;;
84021;SDS011;74108;48.636;9.492;2024-01-06T10:35:01;2.90;;;1.90;;
84021;SDS011;74108;48.636;9.492;2024-01-06T10:37:28;3.95;;;2.20;;
84021;SDS011;74108;48.636;9.492;2024-01-06T10:40:07;4.82;;;2.00;;
84021;SDS011;74108;48.636;9.492;2024-01-06T10:42:42;3.85;;;1.90;;
84021;SDS011;74108;48.636;9.492;2024-01-06T10:45:12;2.13;;;1.50;;
84021;SDS011;74108;48.636;9.492;2024-01-06T10:47:41;3.58;;;1.60;;
84021;SDS011;74108;48.636;9.492;2024-01-06T10:50:10;2.40;;;1.50;;
84021;SDS011;74108;48.636;9.492;2024-01-06T10:52:37;3.17;;;1.90;;
84021;SDS011;74108;48.636;9.492;2024-01-06T10:55:04;2.63;;;1.67;;
84021;SDS011;74108;48.636;9.492;2024-01-06T10:57:30;2.50;;;1.63;;
84021;SDS011;74108;48.636;9.492;2024-01-06T10:59:57;2.97;;;1.70;;
84021;SDS011;74108;48.636;9.492;2024-01-06T11:02:24;2.08;;;1.52;;
84021;SDS011;74108;48.636;9.492;2024-01-06T11:04:50;2.90;;;1.70;;
84021;SDS011;74108;48.636;9.492;2024-01-06T11:07:17;2.70;;;1.77;;
84021;SDS011;74108;48.636;9.492;2024-01-06T11:12:23;3.80;;;2.20;;
84021;SDS011;74108;48.636;9.492;2024-01-06T11:14:54;4.40;;;2.80;;
84021;SDS011;74108;48.636;9.492;2024-01-06T11:18:05;4.78;;;2.67;;
84021;SDS011;74108;48.636;9.492;2024-01-06T11:20:18;2.70;;;1.90;;
84021;SDS011;74108;48.636;9.492;2024-01-06T11:22:46;2.55;;;1.65;;
84021;SDS011;74108;48.636;9.492;2024-01-06T11:25:15;3.17;;;1.65;;
84021;SDS011;74108;48.636;9.492;2024-01-06T11:27:42;6.85;;;2.30;;
84021;SDS011;74108;48.636;9.492;2024-01-06T11:30:18;4.82;;;3.10;;
84021;SDS011;74108;48.636;9.492;2024-01-06T11:32:46;3.85;;;2.05;;
84021;SDS011;74108;48.636;9.492;2024-01-06T11:35:12;2.83;;;2.00;;
84021;SDS011;74108;48.636;9.492;2024-01-06T11:42:46;3.22;;;1.92;;
84021;SDS011;74108;48.636;9.492;2024-01-06T11:47:58;3.53;;;1.90;;
84021;SDS011;74108;48.636;9.492;2024-01-06T11:50:26;3.00;;;1.70;;
84021;SDS011;74108;48.636;9.492;2024-01-06T11:52:52;2.95;;;1.98;;
84021;SDS011;74108;48.636;9.492;2024-01-06T11:55:18;2.33;;;1.70;;
84021;SDS011;74108;48.636;9.492;2024-01-06T11:57:44;3.65;;;2.10;;
84021;SDS011;74108;48.636;9.492;2024-01-06T12:00:10;3.08;;;1.83;;
84021;SDS011;74108;48.636;9.492;2024-01-06T12:02:44;2.85;;;1.80;;
84021;SDS011;74108;48.636;9.492;2024-01-06T12:05:16;4.90;;;2.13;;
84021;SDS011;74108;48.636;9.492;2024-01-06T12:07:43;2.90;;;2.03;;
84021;SDS011;74108;48.636;9.492;2024-01-06T12:10:20;3.92;;;2.22;;
84021;SDS011;74108;48.636;9.492;2024-01-06T12:13:00;3.78;;;2.60;;
84021;SDS011;74108;48.636;9.492;2024-01-06T12:15:33;3.03;;;2.30;;
84021;SDS011;74108;48.636;9.492;2024-01-06T12:18:02;3.95;;;2.30;;
84021;SDS011;74108;48.636;9.492;2024-01-06T12:20:28;3.05;;;2.05;;
84021;SDS011;74108;48.636;9.492;2024-01-06T12:22:54;3.47;;;2.55;;
84021;SDS011;74108;48.636;9.492;2024-01-06T12:25:20;4.28;;;2.50;;
84021;SDS011;74108;48.636;9.492;2024-01-06T12:27:50;4.30;;;2.53;;
84021;SDS011;74108;48.636;9.492;2024-01-06T12:30:16;5.45;;;2.90;;
84021;SDS011;74108;48.636;9.492;2024-01-06T12:32:46;5.72;;;3.15;;
84021;SDS011;74108;48.636;9.492;2024-01-06T12:35:14;5.47;;;2.78;;
84021;SDS011;74108;48.636;9.492;2024-01-06T12:37:41;5.63;;;3.30;;
84021;SDS011;74108;48.636;9.492;2024-01-06T12:40:08;5.97;;;3.40;;
84021;SDS011;74108;48.636;9.492;2024-01-06T12:42:35;7.10;;;2.97;;
84021;SDS011;74108;48.636;9.492;2024-01-06T12:45:02;6.60;;;3.80;;
84021;SDS011;74108;48.636;9.492;2024-01-06T12:47:28;3.95;;;2.40;;
84021;SDS011;74108;48.636;9.492;2024-01-06T12:49:54;5.20;;;2.35;;
84021;SDS011;74108;48.636;9.492;2024-01-06T12:52:19;4.15;;;2.20;;
84021;SDS011;74108;48.636;9.492;2024-01-06T12:54:44;3.88;;;2.60;;
84021;SDS011;74108;48.636;9.492;2024-01-06T12:57:10;4.25;;;2.50;;
84021;SDS011;74108;48.636;9.492;2024-01-06T12:59:36;3.47;;;2.35;;
84021;SDS011;74108;48.636;9.492;2024-01-06T13:02:02;3.80;;;2.20;;
84021;SDS011;74108;48.636;9.492;2024-01-06T13:04:27;4.07;;;2.38;;
84021;SDS011;74108;48.636;9.492;2024-01-06T13:06:53;4.38;;;2.17;;
84021;SDS011;74108;48.636;9.492;2024-01-06T13:09:18;3.17;;;1.70;;
84021;SDS011;74108;48.636;9.492;2024-01-06T13:11:44;3.25;;;2.00;;
84021;SDS011;74108;48.636;9.492;2024-01-06T13:14:12;3.47;;;2.10;;
84021;SDS011;74108;48.636;9.492;2024-01-06T13:16:38;3.83;;;2.25;;
84021;SDS011;74108;48.636;9.492;2024-01-06T13:19:04;4.25;;;2.20;;
84021;SDS011;74108;48.636;9.492;2024-01-06T13:21:29;4.68;;;2.20;;
84021;SDS011;74108;48.636;9.492;2024-01-06T13:23:55;2.97;;;2.10;;
84021;SDS011;74108;48.636;9.492;2024-01-06T13:26:26;2.80;;;2.00;;
84021;SDS011;74108;48.636;9.492;2024-01-06T13:28:52;3.45;;;2.10;;
84021;SDS011;74108;48.636;9.492;2024-01-06T13:31:18;3.15;;;2.30;;
84021;SDS011;74108;48.636;9.492;2024-01-06T13:33:44;3.58;;;2.30;;
84021;SDS011;74108;48.636;9.492;2024-01-06T13:36:09;3.10;;;2.20;;
84021;SDS011;74108;48.636;9.492;2024-01-06T13:38:34;2.80;;;1.85;;
84021;SDS011;74108;48.636;9.492;2024-01-06T13:41:00;4.05;;;2.30;;
84021;SDS011;74108;48.636;9.492;2024-01-06T13:43:25;4.93;;;2.58;;
84021;SDS011;74108;48.636;9.492;2024-01-06T13:45:51;4.40;;;2.65;;
84021;SDS011;74108;48.636;9.492;2024-01-06T13:48:16;4.43;;;2.55;;
84021;SDS011;74108;48.636;9.492;2024-01-06T13:50:42;3.58;;;2.42;;
84021;SDS011;74108;48.636;9.492;2024-01-06T13:53:08;3.55;;;2.42;;
84021;SDS011;74108;48.636;9.492;2024-01-06T13:55:33;5.25;;;2.90;;
84021;SDS011;74108;48.636;9.492;2024-01-06T13:57:59;5.50;;;3.08;;
84021;SDS011;74108;48.636;9.492;2024-01-06T14:00:24;4.05;;;2.53;;
84021;SDS011;74108;48.636;9.492;2024-01-06T14:02:51;7.22;;;3.47;;
84021;SDS011;74108;48.636;9.492;2024-01-06T14:05:16;5.05;;;2.80;;
84021;SDS011;74108;48.636;9.492;2024-01-06T14:07:44;6.05;;;3.85;;
84021;SDS011;74108;48.636;9.492;2024-01-06T14:10:13;5.45;;;3.53;;
84021;SDS011;74108;48.636;9.492;2024-01-06T14:12:39;6.88;;;3.50;;
84021;SDS011;74108;48.636;9.492;2024-01-06T14:15:05;6.63;;;3.95;;
84021;SDS011;74108;48.636;9.492;2024-01-06T14:17:31;12.88;;;6.07;;
84021;SDS011;74108;48.636;9.492;2024-01-06T14:19:57;8.98;;;4.43;;
84021;SDS011;74108;48.636;9.492;2024-01-06T14:22:22;4.20;;;2.75;;
84021;SDS011;74108;48.636;9.492;2024-01-06T14:24:48;3.83;;;2.38;;
84021;SDS011;74108;48.636;9.492;2024-01-06T14:27:15;3.88;;;2.40;;
84021;SDS011;74108;48.636;9.492;2024-01-06T14:29:40;3.85;;;2.50;;
84021;SDS011;74108;48.636;9.492;2024-01-06T14:32:06;4.70;;;2.38;;
84021;SDS011;74108;48.636;9.492;2024-01-06T14:34:31;4.63;;;2.85;;
84021;SDS011;74108;48.636;9.492;2024-01-06T14:36:57;3.72;;;2.60;;
84021;SDS011;74108;48.636;9.492;2024-01-06T14:39:22;4.78;;;2.90;;
84021;SDS011;74108;48.636;9.492;2024-01-06T14:41:48;5.10;;;3.20;;
84021;SDS011;74108;48.636;9.492;2024-01-06T14:44:14;4.57;;;3.10;;
84021;SDS011;74108;48.636;9.492;2024-01-06T14:46:39;5.38;;;3.22;;
84021;SDS011;74108;48.636;9.492;2024-01-06T14:49:06;5.30;;;3.05;;
84021;SDS011;74108;48.636;9.492;2024-01-06T14:51:32;4.40;;;3.30;;
84021;SDS011;74108;48.636;9.492;2024-01-06T14:53:57;5.75;;;3.75;;
84021;SDS011;74108;48.636;9.492;2024-01-06T14:56:25;5.45;;;3.28;;
84021;SDS011;74108;48.636;9.492;2024-01-06T14:58:51;5.57;;;3.95;;
84021;SDS011;74108;48.636;9.492;2024-01-06T15:01:16;5.68;;;3.80;;
84021;SDS011;74108;48.636;9.492;2024-01-06T15:03:42;5.22;;;3.72;;
84021;SDS011;74108;48.636;9.492;2024-01-06T15:06:07;4.57;;;3.28;;
84021;SDS011;74108;48.636;9.492;2024-01-06T15:08:33;7.70;;;3.63;;
84021;SDS011;74108;48.636;9.492;2024-01-06T15:10:59;5.90;;;3.58;;
84021;SDS011;74108;48.636;9.492;2024-01-06T15:13:25;8.07;;;4.07;;
84021;SDS011;74108;48.636;9.492;2024-01-06T15:15:50;5.60;;;3.65;;
84021;SDS011;74108;48.636;9.492;2024-01-06T15:18:19;7.28;;;4.30;;
84021;SDS011;74108;48.636;9.492;2024-01-06T15:20:48;7.35;;;4.40;;
84021;SDS011;74108;48.636;9.492;2024-01-06T15:23:13;7.50;;;4.55;;
84021;SDS011;74108;48.636;9.492;2024-01-06T15:25:39;7.80;;;4.90;;
84021;SDS011;74108;48.636;9.492;2024-01-06T15:28:04;8.90;;;5.65;;
84021;SDS011;74108;48.636;9.492;2024-01-06T15:30:30;14.38;;;7.47;;
84021;SDS011;74108;48.636;9.492;2024-01-06T15:32:55;12.68;;;6.13;;
84021;SDS011;74108;48.636;9.492;2024-01-06T15:35:21;10.23;;;5.70;;
84021;SDS011;74108;48.636;9.492;2024-01-06T15:37:46;13.00;;;6.82;;
84021;SDS011;74108;48.636;9.492;2024-01-06T15:40:12;9.73;;;6.03;;
84021;SDS011;74108;48.636;9.492;2024-01-06T15:42:38;8.95;;;5.40;;
84021;SDS011;74108;48.636;9.492;2024-01-06T15:45:03;12.10;;;6.05;;
84021;SDS011;74108;48.636;9.492;2024-01-06T15:47:29;10.68;;;5.53;;
84021;SDS011;74108;48.636;9.492;2024-01-06T15:49:54;8.65;;;5.47;;
84021;SDS011;74108;48.636;9.492;2024-01-06T15:52:20;9.70;;;4.97;;
84021;SDS011;74108;48.636;9.492;2024-01-06T15:54:47;9.45;;;5.70;;
84021;SDS011;74108;48.636;9.492;2024-01-06T15:57:13;10.48;;;5.78;;
84021;SDS011;74108;48.636;9.492;2024-01-06T15:59:39;10.75;;;6.30;;
84021;SDS011;74108;48.636;9.492;2024-01-06T16:02:04;12.00;;;5.93;;
84021;SDS011;74108;48.636;9.492;2024-01-06T16:04:30;10.82;;;6.47;;
84021;SDS011;74108;48.636;9.492;2024-01-06T16:06:55;8.52;;;5.30;;
84021;SDS011;74108;48.636;9.492;2024-01-06T16:09:22;9.35;;;6.25;;
84021;SDS011;74108;48.636;9.492;2024-01-06T16:11:50;8.95;;;5.57;;
84021;SDS011;74108;48.636;9.492;2024-01-06T16:14:21;9.02;;;5.75;;
84021;SDS011;74108;48.636;9.492;2024-01-06T16:16:46;9.95;;;5.75;;
84021;SDS011;74108;48.636;9.492;2024-01-06T16:19:11;9.40;;;5.30;;
84021;SDS011;74108;48.636;9.492;2024-01-06T16:21:37;8.55;;;5.28;;